createdAt,value
2023-03-23T15:59:51.574Z,20.00
2023-03-23T16:03:22.636Z,24.10
2023-03-23T16:06:52.507Z,7.80
2023-03-23T16:10:23.584Z,4.90
2023-03-23T16:13:51.961Z,5.50
2023-03-23T16:17:23.204Z,6.00
2023-03-23T16:20:53.239Z,6.10
2023-03-23T16:24:20.668Z,6.20
2023-03-23T16:27:52.586Z,5.70
2023-03-23T16:31:20.561Z,5.00
2023-03-23T16:34:48.223Z,4.50
2023-03-23T16:38:18.158Z,4.80
2023-03-23T16:41:46.383Z,4.00
2023-03-23T16:45:14.974Z,4.50
2023-03-23T16:48:42.273Z,5.40
2023-03-23T16:52:12.948Z,6.20
2023-03-23T16:55:44.972Z,5.20
2023-03-23T16:59:15.505Z,5.60
2023-03-23T17:02:47.203Z,4.80
2023-03-23T17:06:15.372Z,4.90
2023-03-23T17:09:47.047Z,5.10
2023-03-23T17:13:17.485Z,6.10
2023-03-23T17:16:45.738Z,7.10
2023-03-23T17:20:15.076Z,6.30
2023-03-23T17:23:42.246Z,7.60
2023-03-23T17:27:09.955Z,12.40
2023-03-23T17:30:41.004Z,11.50
2023-03-23T17:34:10.330Z,7.60
2023-03-23T17:37:45.288Z,5.40
2023-03-23T17:41:13.892Z,5.30
2023-03-23T17:44:42.584Z,5.40
2023-03-23T17:48:11.114Z,6.20
2023-03-23T17:51:38.933Z,6.40
2023-03-23T17:55:08.914Z,8.10
2023-03-23T17:58:37.006Z,9.80
2023-03-23T18:02:04.504Z,11.20
2023-03-23T18:05:32.389Z,10.30
2023-03-23T18:08:59.592Z,10.00
2023-03-23T18:12:27.364Z,9.50
2023-03-23T18:15:56.884Z,9.30
2023-03-23T18:19:24.420Z,8.10
2023-03-23T18:22:52.393Z,8.60
2023-03-23T18:26:21.959Z,8.00
2023-03-23T18:29:50.831Z,8.50
2023-03-23T18:33:20.897Z,7.80
2023-03-23T18:36:49.188Z,7.20
2023-03-23T18:40:21.768Z,7.10
2023-03-23T18:43:49.953Z,6.00
2023-03-23T18:47:18.489Z,6.00
2023-03-23T18:50:50.184Z,7.20
2023-03-23T18:54:19.236Z,7.60
2023-03-23T18:57:49.539Z,7.40
2023-03-23T19:01:18.426Z,7.20
2023-03-23T19:04:46.704Z,6.30
2023-03-23T19:08:14.197Z,7.10
2023-03-23T19:11:41.753Z,6.60
2023-03-23T19:15:10.906Z,5.70
2023-03-23T19:18:38.600Z,6.50
2023-03-23T19:22:08.757Z,7.20
2023-03-23T19:25:36.839Z,7.50
2023-03-23T19:29:25.415Z,8.20
2023-03-23T19:32:52.894Z,8.30
2023-03-23T19:36:21.687Z,8.90
2023-03-23T19:39:49.127Z,7.80
2023-03-23T19:43:17.101Z,8.00
2023-03-23T19:46:44.709Z,9.10
2023-03-23T19:50:12.650Z,9.90
2023-03-23T19:53:40.177Z,8.10
2023-03-23T19:57:08.298Z,7.90
2023-03-23T20:00:37.698Z,7.80
2023-03-23T20:04:06.988Z,7.80
2023-03-23T20:07:40.785Z,8.10
2023-03-23T20:11:12.636Z,9.80
2023-03-23T20:14:44.972Z,10.20
2023-03-23T20:18:14.808Z,11.00
2023-03-23T20:21:41.963Z,9.50
2023-03-23T20:25:10.198Z,7.50
2023-03-23T20:28:37.477Z,7.00
2023-03-23T20:32:04.745Z,7.10
2023-03-23T20:35:32.010Z,6.40
2023-03-23T20:38:59.448Z,7.30
2023-03-23T20:42:26.606Z,9.20
2023-03-23T20:45:55.249Z,9.40
2023-03-23T20:49:23.297Z,9.20
2023-03-23T20:52:50.320Z,9.50
2023-03-23T20:56:17.387Z,8.00
2023-03-23T20:59:44.715Z,7.90
2023-03-23T21:03:12.974Z,7.80
2023-03-23T21:06:40.418Z,7.90
2023-03-23T21:10:08.054Z,9.50
2023-03-23T21:13:36.581Z,9.10
2023-03-23T21:17:04.239Z,10.30
2023-03-23T21:20:32.384Z,11.90
2023-03-23T21:23:59.688Z,10.50
2023-03-23T21:27:27.203Z,9.70
2023-03-23T21:30:54.837Z,8.70
2023-03-23T21:34:21.986Z,8.80
2023-03-23T21:37:50.184Z,8.20
2023-03-23T21:41:17.365Z,8.50
2023-03-23T21:44:45.987Z,8.40
2023-03-23T21:48:15.525Z,8.70
2023-03-23T21:51:44.139Z,9.60
2023-03-23T21:55:12.538Z,8.30
2023-03-23T21:58:40.128Z,8.30
2023-03-23T22:02:07.659Z,9.70
2023-03-23T22:05:35.112Z,8.40
2023-03-23T22:09:02.249Z,7.50
2023-03-23T22:12:31.976Z,7.50
2023-03-23T22:16:00.871Z,7.20
2023-03-23T22:19:29.301Z,7.60
2023-03-23T22:22:56.930Z,8.30
2023-03-23T22:26:25.031Z,9.50
2023-03-23T22:29:52.076Z,10.20
2023-03-23T22:33:20.079Z,10.70
2023-03-23T22:36:47.695Z,12.30
2023-03-23T22:40:15.596Z,10.70
2023-03-23T22:43:42.815Z,10.40
2023-03-23T22:47:10.140Z,10.50
2023-03-23T22:50:37.505Z,9.70
2023-03-23T22:54:04.655Z,9.30
2023-03-23T22:57:32.030Z,8.20
2023-03-23T23:01:01.467Z,8.00
2023-03-23T23:04:28.721Z,7.70
2023-03-23T23:07:56.047Z,8.70
2023-03-23T23:11:25.375Z,8.00
2023-03-23T23:14:52.486Z,8.50
2023-03-23T23:18:20.639Z,8.20
2023-03-23T23:21:47.696Z,8.10
2023-03-23T23:25:14.811Z,8.30
2023-03-23T23:28:42.402Z,8.30
2023-03-23T23:32:09.534Z,8.60
2023-03-23T23:35:37.132Z,9.00
2023-03-23T23:39:06.096Z,8.60
2023-03-23T23:42:33.135Z,7.90
2023-03-23T23:46:00.209Z,8.50
2023-03-23T23:49:28.865Z,9.00
2023-03-23T23:52:58.768Z,9.20
2023-03-23T23:59:51.566Z,9.20
